Time;durP1;ratioP1;P1;durP2;ratioP2;P2;SDS_P1;SDS_P2;PMS_P1;PMS_P2;Temp;Humidity;BMP_temperature;BMP_pressure;BME280_temperature;BME280_humidity;BME280_pressure;Samples;Min_cycle;Max_cycle;Signal;HPM_P1;HPM_P2
2023/01/30 00:01:06;;;;;;;50.90;23.67;;;3.50;99.90;;;;;;5011980;28;20030;-43
2023/01/30 00:03:33;;;;;;;55.67;25.73;;;3.50;99.90;;;;;;5011618;28;20080;-43
2023/01/30 00:05:58;;;;;;;54.63;25.03;;;3.60;99.90;;;;;;5011835;28;20410;-44
2023/01/30 00:08:24;;;;;;;55.63;24.20;;;3.70;99.90;;;;;;5011393;28;20038;-43
2023/01/30 00:10:50;;;;;;;49.20;22.70;;;3.70;99.90;;;;;;5011595;28;20189;-43
2023/01/30 00:13:16;;;;;;;48.90;21.83;;;3.70;99.90;;;;;;5011390;28;20036;-43
2023/01/30 00:15:42;;;;;;;49.27;22.70;;;3.80;99.90;;;;;;5011422;28;20032;-44
2023/01/30 00:18:08;;;;;;;50.67;21.60;;;3.80;99.90;;;;;;5011328;28;20065;-44
2023/01/30 00:20:34;;;;;;;51.33;23.93;;;3.80;99.90;;;;;;5011512;28;20382;-44
2023/01/30 00:23:00;;;;;;;51.23;22.33;;;3.80;99.90;;;;;;5011460;28;20112;-46
2023/01/30 00:25:27;;;;;;;46.20;21.67;;;3.80;99.90;;;;;;4993788;28;20033;-43
2023/01/30 00:27:52;;;;;;;48.63;22.03;;;3.90;99.90;;;;;;5011455;28;20038;-43
2023/01/30 00:30:19;;;;;;;50.97;22.97;;;3.80;99.90;;;;;;5011267;28;20030;-46
2023/01/30 00:32:44;;;;;;;50.07;22.27;;;3.80;99.90;;;;;;5011321;28;20033;-43
2023/01/30 00:35:10;;;;;;;46.27;20.77;;;3.90;99.90;;;;;;5011158;28;20392;-44
2023/01/30 00:37:36;;;;;;;48.33;21.63;;;3.90;99.90;;;;;;5011082;28;20030;-43
2023/01/30 00:40:01;;;;;;;46.67;21.43;;;3.90;99.90;;;;;;5011046;28;20027;-45
2023/01/30 00:47:58;;;;;;;45.70;21.10;;;4.00;99.90;;;;;;5011053;28;20030;-44
2023/01/30 00:50:24;;;;;;;51.93;22.60;;;4.00;99.90;;;;;;4993265;28;20507;-43
2023/01/30 00:52:50;;;;;;;50.37;23.23;;;4.00;99.90;;;;;;4993391;28;20040;-46
2023/01/30 00:55:16;;;;;;;51.17;23.70;;;4.10;99.90;;;;;;4993367;28;20032;-46
2023/01/30 00:57:43;;;;;;;52.43;23.60;;;4.10;99.90;;;;;;5011028;28;20036;-45
2023/01/30 01:00:10;;;;;;;50.30;23.93;;;4.10;99.90;;;;;;4993344;28;20704;-45
2023/01/30 01:02:39;;;;;;;;;;;4.10;99.90;;;;;;4993932;28;20032;-45
2023/01/30 01:05:05;;;;;;;52.83;23.23;;;4.20;99.90;;;;;;4993268;28;19910;-46
2023/01/30 01:07:30;;;;;;;52.50;23.53;;;4.20;99.90;;;;;;5010755;28;20034;-48
2023/01/30 01:09:57;;;;;;;46.40;22.73;;;4.20;99.90;;;;;;5010878;28;20033;-44
2023/01/30 01:12:23;;;;;;;47.43;23.57;;;4.20;99.90;;;;;;4996381;28;20044;-45
2023/01/30 01:14:49;;;;;;;50.10;23.07;;;4.20;99.90;;;;;;5014774;28;20104;-46
2023/01/30 01:17:15;;;;;;;52.53;23.20;;;4.20;99.90;;;;;;4996927;28;20037;-49
2023/01/30 01:19:41;;;;;;;48.17;21.70;;;4.20;99.90;;;;;;5014695;28;20479;-44
2023/01/30 01:22:06;;;;;;;49.93;23.00;;;4.20;99.90;;;;;;5014799;28;20022;-46
2023/01/30 01:24:32;;;;;;;45.70;22.37;;;4.20;99.90;;;;;;4997126;28;20526;-45
2023/01/30 01:26:58;;;;;;;45.53;22.23;;;4.20;99.90;;;;;;5014481;28;20034;-47
2023/01/30 01:29:24;;;;;;;43.07;19.23;;;4.20;99.90;;;;;;5014490;28;20033;-46
2023/01/30 01:31:49;;;;;;;51.50;21.93;;;4.20;99.90;;;;;;4996907;28;20026;-45
2023/01/30 01:34:15;;;;;;;48.13;22.50;;;4.30;99.90;;;;;;4996622;28;20029;-47
2023/01/30 01:36:43;;;;;;;44.27;21.40;;;4.30;99.90;;;;;;5014444;28;20105;-46
2023/01/30 01:39:08;;;;;;;42.77;20.87;;;4.30;99.90;;;;;;4996648;28;20069;-45
2023/01/30 01:41:34;;;;;;;47.40;20.17;;;4.30;99.90;;;;;;5014444;28;20028;-46
2023/01/30 01:44:06;;;;;;;43.87;18.87;;;4.30;99.90;;;;;;5014199;28;20153;-44
2023/01/30 01:46:39;;;;;;;42.30;20.47;;;4.30;99.90;;;;;;5014102;28;20088;-44
2023/01/30 01:49:12;;;;;;;43.73;21.40;;;4.40;99.90;;;;;;5014280;28;20104;-44
2023/01/30 01:51:45;;;;;;;43.70;21.00;;;4.40;99.90;;;;;;5014284;28;20153;-45
2023/01/30 01:54:15;;;;;;;42.73;21.00;;;4.40;99.90;;;;;;5013982;28;20394;-43
2023/01/30 01:56:44;;;;;;;43.13;20.60;;;4.40;99.90;;;;;;4996203;28;20525;-45
2023/01/30 01:59:29;;;;;;;40.70;19.58;;;4.40;99.90;;;;;;4996225;28;20049;-46
2023/01/30 02:01:59;;;;;;;42.43;19.50;;;4.40;99.90;;;;;;4996472;28;20029;-47
2023/01/30 02:07:17;;;;;;;40.80;18.87;;;4.50;99.90;;;;;;5013722;28;20561;-46
2023/01/30 02:09:43;;;;;;;41.95;20.50;;;4.60;99.90;;;;;;4996195;28;20026;-44
2023/01/30 02:12:11;;;;;;;39.70;20.13;;;4.50;99.90;;;;;;5013762;28;20041;-43
2023/01/30 02:14:38;;;;;;;38.83;19.67;;;4.60;99.90;;;;;;5013638;28;20513;-44
2023/01/30 02:17:04;;;;;;;39.70;19.60;;;4.60;99.90;;;;;;4996063;28;20026;-44
2023/01/30 02:19:35;;;;;;;40.23;19.47;;;4.70;99.90;;;;;;4995873;28;20088;-44
2023/01/30 02:22:40;;;;;;;37.73;18.53;;;4.70;99.90;;;;;;4995977;28;20037;-44
2023/01/30 02:25:16;;;;;;;41.37;19.93;;;4.70;99.90;;;;;;4995950;28;20084;-44
2023/01/30 02:28:09;;;;;;;41.53;20.13;;;4.70;99.90;;;;;;4995807;28;20100;-44
2023/01/30 02:31:03;;;;;;;40.93;20.10;;;4.80;99.90;;;;;;4995938;28;20491;-46
2023/01/30 02:33:57;;;;;;;39.03;19.03;;;4.80;99.90;;;;;;4995540;28;20038;-46
2023/01/30 02:36:34;;;;;;;41.53;20.80;;;4.80;99.90;;;;;;4995569;28;20113;-44
2023/01/30 02:39:41;;;;;;;44.47;20.13;;;4.80;99.90;;;;;;5013238;28;20030;-45
2023/01/30 02:42:28;;;;;;;41.00;19.20;;;4.80;99.90;;;;;;4985331;28;20041;-43
2023/01/30 02:45:21;;;;;;;42.27;20.57;;;4.80;99.90;;;;;;4995389;28;20030;-43
2023/01/30 02:47:57;;;;;;;40.37;18.40;;;4.80;99.90;;;;;;4995057;28;20030;-44
2023/01/30 02:50:27;;;;;;;36.40;18.97;;;4.90;99.90;;;;;;5013080;28;20029;-45
2023/01/30 02:52:53;;;;;;;38.33;18.77;;;4.90;99.90;;;;;;5013067;28;20122;-43
2023/01/30 02:55:24;;;;;;;43.73;19.83;;;4.90;99.90;;;;;;4995155;28;20058;-43
2023/01/30 02:57:50;;;;;;;39.73;20.10;;;5.00;99.90;;;;;;4995306;28;20060;-44
2023/01/30 03:00:25;;;;;;;40.90;18.13;;;5.00;99.90;;;;;;4995214;28;20053;-44
2023/01/30 03:03:23;;;;;;;38.37;18.07;;;5.00;99.90;;;;;;4995368;28;20030;-43
2023/01/30 03:06:13;;;;;;;39.77;19.00;;;5.10;99.90;;;;;;4995212;28;20026;-43
2023/01/30 03:08:47;;;;;;;38.67;19.60;;;5.10;99.90;;;;;;4994925;28;20040;-43
2023/01/30 03:11:13;;;;;;;42.23;19.53;;;5.00;99.90;;;;;;5012754;28;20033;-43
2023/01/30 03:13:45;;;;;;;40.13;19.00;;;5.10;99.90;;;;;;4994833;28;20052;-44
2023/01/30 03:16:21;;;;;;;40.00;19.90;;;5.10;99.90;;;;;;4995091;28;20021;-45
2023/01/30 03:18:48;;;;;;;38.87;18.90;;;5.10;99.90;;;;;;5012463;28;20030;-43
2023/01/30 03:21:16;;;;;;;45.83;19.97;;;5.10;99.90;;;;;;4994979;28;20026;-44
2023/01/30 03:23:46;;;;;;;37.63;20.40;;;5.10;99.90;;;;;;5012283;28;20026;-46
2023/01/30 03:26:23;;;;;;;42.72;18.60;;;5.10;99.90;;;;;;4994974;28;20026;-44
2023/01/30 03:28:51;;;;;;;42.97;19.97;;;5.10;99.90;;;;;;4994688;28;20033;-44
2023/01/30 03:31:18;;;;;;;39.23;20.83;;;5.10;99.90;;;;;;4994985;28;20030;-44
2023/01/30 03:33:44;;;;;;;42.40;20.27;;;5.10;99.90;;;;;;4993859;28;20557;-44
2023/01/30 03:36:11;;;;;;;43.30;19.77;;;5.10;99.90;;;;;;4994827;28;20659;-44
2023/01/30 03:38:37;;;;;;;40.40;19.47;;;5.10;99.90;;;;;;5009775;23;20022;-49
2023/01/30 03:41:04;;;;;;;41.53;20.10;;;5.10;99.90;;;;;;5030218;28;20040;-47
2023/01/30 03:43:31;;;;;;;42.13;20.23;;;5.10;99.90;;;;;;5030359;28;20536;-49
2023/01/30 03:45:57;;;;;;;46.00;21.57;;;5.10;99.90;;;;;;5030746;28;20033;-47
2023/01/30 03:48:22;;;;;;;45.27;21.13;;;5.20;99.90;;;;;;5030379;28;20091;-48
2023/01/30 03:50:48;;;;;;;43.93;20.80;;;5.10;99.90;;;;;;5030382;28;20083;-48
2023/01/30 03:53:15;;;;;;;43.03;21.07;;;5.10;99.90;;;;;;5030457;28;20022;-48
2023/01/30 03:55:43;;;;;;;43.50;22.53;;;5.20;99.90;;;;;;5030102;28;20033;-50
2023/01/30 03:58:09;;;;;;;45.50;21.80;;;5.20;99.90;;;;;;5030119;28;20034;-45
2023/01/30 04:00:35;;;;;;;44.93;21.80;;;5.20;99.90;;;;;;5030196;28;20033;-46
2023/01/30 04:03:01;;;;;;;46.33;21.73;;;5.20;99.90;;;;;;5030482;28;20029;-45
2023/01/30 04:05:27;;;;;;;48.00;21.50;;;5.20;99.90;;;;;;5030142;28;20082;-45
2023/01/30 04:07:58;;;;;;;46.63;21.10;;;5.20;99.90;;;;;;5029921;28;20026;-43
2023/01/30 04:10:25;;;;;;;49.03;22.17;;;5.20;99.90;;;;;;5029873;28;20033;-45
2023/01/30 04:12:51;;;;;;;42.40;21.57;;;5.20;99.90;;;;;;5029891;28;20029;-44
2023/01/30 04:15:18;;;;;;;42.37;20.77;;;5.30;99.90;;;;;;5029881;28;20112;-44
2023/01/30 04:18:13;;;;;;;41.87;20.67;;;5.30;99.90;;;;;;5021783;28;20045;-44
2023/01/30 04:20:49;;;;;;;44.90;21.93;;;5.30;99.90;;;;;;5027132;28;20048;-43
2023/01/30 04:23:19;;;;;;;41.67;20.97;;;5.30;99.90;;;;;;5021859;28;20025;-46
2023/01/30 04:25:46;;;;;;;43.67;21.33;;;5.20;99.90;;;;;;5025910;28;20021;-46
2023/01/30 04:28:13;;;;;;;44.50;21.57;;;5.30;99.90;;;;;;5029914;28;20040;-45
2023/01/30 04:30:39;;;;;;;42.93;21.00;;;5.30;99.90;;;;;;5028014;28;20033;-44
2023/01/30 04:33:25;;;;;;;44.67;21.70;;;5.30;99.90;;;;;;5029649;28;20736;-47
2023/01/30 04:35:56;;;;;;;44.93;21.60;;;5.30;99.90;;;;;;5027833;28;20037;-44
2023/01/30 04:38:23;;;;;;;49.67;23.83;;;5.20;99.90;;;;;;5027414;28;20557;-43
2023/01/30 04:40:50;;;;;;;43.30;21.37;;;5.20;99.90;;;;;;5029482;28;20374;-44
2023/01/30 04:43:17;;;;;;;41.60;20.10;;;5.20;99.90;;;;;;5028319;28;20033;-48
2023/01/30 04:46:03;;;;;;;45.07;21.57;;;5.20;99.90;;;;;;5016811;28;20115;-46
2023/01/30 04:48:29;;;;;;;42.33;20.83;;;5.30;99.90;;;;;;5029292;28;20470;-46
2023/01/30 04:50:57;;;;;;;44.30;20.80;;;5.30;99.90;;;;;;5027279;28;20022;-46
2023/01/30 04:53:24;;;;;;;44.67;19.27;;;5.30;99.90;;;;;;5026916;28;20043;-45
2023/01/30 04:55:51;;;;;;;40.10;20.30;;;5.30;99.90;;;;;;5027797;28;20095;-48
2023/01/30 04:58:20;;;;;;;37.67;20.03;;;5.30;99.90;;;;;;5027422;28;20406;-44
2023/01/30 05:00:46;;;;;;;36.95;19.42;;;5.30;99.90;;;;;;5027763;28;20029;-43
2023/01/30 05:03:13;;;;;;;45.23;20.43;;;5.40;99.90;;;;;;5027841;28;20029;-47
2023/01/30 05:05:39;;;;;;;39.67;18.40;;;5.40;99.90;;;;;;5028754;28;20074;-45
2023/01/30 05:08:08;;;;;;;38.87;20.00;;;5.40;99.90;;;;;;5028887;28;20125;-45
2023/01/30 05:10:33;;;;;;;37.20;19.10;;;5.40;99.90;;;;;;5028861;28;20037;-45
2023/01/30 05:13:04;;;;;;;37.60;19.77;;;5.40;99.90;;;;;;5029296;28;20336;-47
2023/01/30 05:15:30;;;;;;;34.23;18.23;;;5.40;99.90;;;;;;5027610;28;20021;-45
2023/01/30 05:17:56;;;;;;;35.43;18.50;;;5.40;99.90;;;;;;5029145;28;20061;-45
2023/01/30 05:20:22;;;;;;;39.33;19.70;;;5.50;99.90;;;;;;5028558;28;20069;-44
2023/01/30 05:22:47;;;;;;;36.70;18.50;;;5.40;99.90;;;;;;5029079;28;20051;-44
2023/01/30 05:25:13;;;;;;;34.67;17.97;;;5.40;99.90;;;;;;5028065;28;20147;-45
2023/01/30 05:27:39;;;;;;;34.13;18.07;;;5.40;99.90;;;;;;5028904;28;20401;-47
2023/01/30 05:30:05;;;;;;;33.03;16.10;;;5.50;99.90;;;;;;5028978;28;20389;-45
2023/01/30 05:32:31;;;;;;;33.03;18.47;;;5.50;99.90;;;;;;5028893;28;20111;-45
2023/01/30 05:34:56;;;;;;;34.27;16.77;;;5.50;99.90;;;;;;5028419;28;20075;-45
2023/01/30 05:37:23;;;;;;;29.13;16.93;;;5.60;99.90;;;;;;5023617;28;20025;-46
2023/01/30 05:39:49;;;;;;;34.10;17.50;;;5.50;99.90;;;;;;5027067;28;20037;-46
2023/01/30 05:42:14;;;;;;;32.50;16.90;;;5.60;99.90;;;;;;5028770;28;20021;-47
2023/01/30 05:44:40;;;;;;;33.93;17.87;;;5.60;99.90;;;;;;5028548;28;20018;-44
2023/01/30 05:47:06;;;;;;;31.03;17.23;;;5.60;99.90;;;;;;5027158;28;20029;-46
2023/01/30 05:49:32;;;;;;;34.87;18.20;;;5.60;99.90;;;;;;5028657;28;20414;-45
2023/01/30 05:51:57;;;;;;;32.00;16.97;;;5.60;99.90;;;;;;5028186;28;20455;-46
2023/01/30 05:54:23;;;;;;;33.70;17.37;;;5.60;99.90;;;;;;5027454;28;20037;-45
2023/01/30 05:56:49;;;;;;;34.90;16.47;;;5.60;99.90;;;;;;5028886;28;20099;-47
2023/01/30 05:59:17;;;;;;;32.80;17.20;;;5.70;99.90;;;;;;5031762;28;20545;-45
2023/01/30 06:01:43;;;;;;;33.50;18.00;;;5.70;99.90;;;;;;5031945;28;20068;-46
2023/01/30 06:04:09;;;;;;;32.87;17.93;;;5.70;99.90;;;;;;5031796;28;20056;-45
2023/01/30 06:06:34;;;;;;;35.07;18.07;;;5.70;99.90;;;;;;5030985;28;20383;-44
2023/01/30 06:09:00;;;;;;;32.57;17.27;;;5.70;99.90;;;;;;5031022;28;20045;-43
2023/01/30 06:11:26;;;;;;;32.57;17.53;;;5.70;99.90;;;;;;5031970;28;20029;-44
2023/01/30 06:13:52;;;;;;;34.33;17.33;;;5.70;99.90;;;;;;5031658;28;20067;-44
2023/01/30 06:16:18;;;;;;;37.13;19.03;;;5.70;99.90;;;;;;5031475;28;20025;-44
2023/01/30 06:18:47;;;;;;;37.57;19.67;;;5.80;99.90;;;;;;5031550;28;20040;-46
2023/01/30 06:21:14;;;;;;;35.22;18.92;;;5.70;99.90;;;;;;5031404;28;20029;-49
2023/01/30 06:23:40;;;;;;;36.57;18.87;;;5.80;99.90;;;;;;5030691;28;20056;-48
2023/01/30 06:26:06;;;;;;;34.03;18.43;;;5.80;99.90;;;;;;5031860;28;20413;-48
2023/01/30 06:28:32;;;;;;;35.70;18.30;;;5.80;99.90;;;;;;5031180;28;20037;-46
2023/01/30 06:30:58;;;;;;;33.87;17.93;;;5.90;99.90;;;;;;5031309;28;20125;-48
2023/01/30 06:33:24;;;;;;;31.30;18.20;;;5.80;99.90;;;;;;5030908;28;20037;-48
2023/01/30 06:35:50;;;;;;;30.77;17.07;;;6.00;99.90;;;;;;5044522;28;20385;-44
2023/01/30 06:38:17;;;;;;;28.83;16.33;;;6.00;99.90;;;;;;5048627;28;20547;-47
2023/01/30 06:40:45;;;;;;;29.80;16.97;;;6.20;99.90;;;;;;5050303;28;20053;-43
2023/01/30 06:43:11;;;;;;;27.23;15.57;;;6.30;99.90;;;;;;5050203;28;20117;-48
2023/01/30 06:45:37;;;;;;;26.77;15.37;;;6.30;99.90;;;;;;5049950;28;20029;-47
2023/01/30 06:48:03;;;;;;;29.30;15.40;;;6.30;99.90;;;;;;5050134;28;20043;-42
2023/01/30 06:50:29;;;;;;;28.80;14.87;;;6.30;99.90;;;;;;5049853;28;20402;-45
2023/01/30 06:52:55;;;;;;;26.07;15.53;;;6.30;99.90;;;;;;5050447;28;20479;-49
2023/01/30 06:55:24;;;;;;;27.80;15.77;;;6.30;99.90;;;;;;5047430;28;20117;-48
2023/01/30 06:57:59;;;;;;;27.50;15.20;;;6.20;99.90;;;;;;5050098;28;20500;-47
2023/01/30 07:00:25;;;;;;;29.43;15.07;;;6.20;99.90;;;;;;5050130;28;20105;-43
2023/01/30 07:02:50;;;;;;;28.90;14.93;;;6.30;99.90;;;;;;5050566;28;20408;-44
2023/01/30 07:05:16;;;;;;;29.07;15.73;;;6.30;99.90;;;;;;5049333;28;20112;-44
2023/01/30 07:07:42;;;;;;;28.10;15.53;;;6.30;99.90;;;;;;5049967;28;20043;-48
2023/01/30 07:10:10;;;;;;;25.13;14.87;;;6.30;99.90;;;;;;5048264;28;20357;-46
2023/01/30 07:12:36;;;;;;;29.55;15.32;;;6.30;99.90;;;;;;5050154;28;20029;-43
2023/01/30 07:15:03;;;;;;;28.97;15.07;;;6.40;99.90;;;;;;5049723;28;20037;-42
2023/01/30 07:17:29;;;;;;;27.13;14.90;;;6.40;99.90;;;;;;5030982;28;20033;-48
2023/01/30 07:19:55;;;;;;;31.73;16.03;;;6.30;99.90;;;;;;5009837;28;20226;-44
2023/01/30 07:22:20;;;;;;;26.70;14.70;;;6.40;99.90;;;;;;5010210;28;20129;-43
2023/01/30 07:24:46;;;;;;;34.00;15.97;;;6.40;99.90;;;;;;5009207;28;20181;-43
2023/01/30 07:27:12;;;;;;;28.43;14.57;;;6.40;99.90;;;;;;5009897;28;20041;-43
2023/01/30 07:29:39;;;;;;;29.60;14.17;;;6.40;99.90;;;;;;5025184;28;20029;-46
2023/01/30 07:32:06;;;;;;;27.57;14.63;;;6.30;99.90;;;;;;5010003;28;20052;-45
2023/01/30 07:34:32;;;;;;;30.60;14.33;;;6.40;99.90;;;;;;5009615;28;20493;-44
2023/01/30 07:36:58;;;;;;;29.03;14.03;;;6.40;99.90;;;;;;5008982;28;20030;-47
2023/01/30 07:39:23;;;;;;;25.80;14.03;;;6.30;99.90;;;;;;5009053;28;20036;-47
2023/01/30 07:41:49;;;;;;;25.27;13.20;;;6.30;99.90;;;;;;5010063;28;20021;-47
2023/01/30 07:44:16;;;;;;;26.50;14.23;;;6.30;99.90;;;;;;5009684;28;20033;-48
2023/01/30 07:46:42;;;;;;;32.57;14.17;;;6.40;99.90;;;;;;5009652;28;20363;-48
2023/01/30 07:49:09;;;;;;;26.83;13.60;;;6.40;99.90;;;;;;5009079;28;20036;-50
2023/01/30 07:51:35;;;;;;;33.20;13.77;;;6.40;99.90;;;;;;5009368;28;20394;-47
2023/01/30 07:54:02;;;;;;;25.27;13.77;;;6.40;99.90;;;;;;5008694;28;20026;-49
2023/01/30 07:56:28;;;;;;;23.83;12.17;;;6.50;99.90;;;;;;5009139;28;20033;-46
2023/01/30 07:58:55;;;;;;;25.40;13.17;;;6.50;99.90;;;;;;5009422;28;20382;-49
2023/01/30 08:01:20;;;;;;;27.13;12.50;;;6.50;99.90;;;;;;5009701;28;20430;-42
2023/01/30 08:03:48;;;;;;;28.70;12.30;;;6.50;99.90;;;;;;5009199;28;20044;-48
2023/01/30 08:06:15;;;;;;;25.70;11.77;;;6.40;99.90;;;;;;5009153;28;20414;-44
2023/01/30 08:08:41;;;;;;;26.43;11.97;;;6.50;99.90;;;;;;5007669;28;20045;-46
2023/01/30 08:11:06;;;;;;;21.87;10.67;;;6.50;99.90;;;;;;5009417;28;20048;-44
2023/01/30 08:13:32;;;;;;;20.70;9.50;;;6.50;99.90;;;;;;5008765;28;20042;-43
2023/01/30 08:16:03;;;;;;;22.37;10.37;;;6.50;99.90;;;;;;5009000;28;20026;-44
2023/01/30 08:18:30;;;;;;;28.07;8.77;;;6.60;99.90;;;;;;5008501;28;20363;-47
2023/01/30 08:21:00;;;;;;;20.60;7.37;;;6.70;99.90;;;;;;5008782;28;20182;-43
2023/01/30 08:23:26;;;;;;;22.30;7.00;;;6.70;99.90;;;;;;5021928;28;20041;-45
2023/01/30 08:26:00;;;;;;;19.13;7.40;;;6.70;99.90;;;;;;5029006;28;20398;-46
2023/01/30 08:28:26;;;;;;;20.97;7.07;;;6.80;99.90;;;;;;5028059;28;20037;-47
2023/01/30 08:30:55;;;;;;;22.03;7.97;;;6.70;99.90;;;;;;5028793;28;20083;-42
2023/01/30 08:33:22;;;;;;;22.25;7.32;;;6.80;99.90;;;;;;5028437;28;20029;-42
2023/01/30 08:35:48;;;;;;;18.40;5.60;;;6.80;99.90;;;;;;5028343;28;20538;-45
2023/01/30 08:38:14;;;;;;;20.40;4.67;;;6.70;99.90;;;;;;5027843;28;20087;-44
2023/01/30 08:40:40;;;;;;;14.87;4.13;;;6.70;99.90;;;;;;5028391;28;20068;-42
2023/01/30 08:43:06;;;;;;;15.27;4.20;;;6.70;99.90;;;;;;5028385;28;20138;-42
2023/01/30 08:45:32;;;;;;;16.03;4.43;;;6.70;99.90;;;;;;5028309;28;20151;-45
2023/01/30 08:48:03;;;;;;;15.23;3.83;;;6.70;99.90;;;;;;5028448;28;20115;-44
2023/01/30 08:50:29;;;;;;;16.80;3.80;;;6.70;99.90;;;;;;5027782;28;20041;-43
2023/01/30 08:52:55;;;;;;;14.20;4.37;;;6.80;99.90;;;;;;5022258;28;20030;-46
2023/01/30 08:55:21;;;;;;;16.50;4.10;;;6.70;99.90;;;;;;5010130;28;20030;-45
2023/01/30 08:57:47;;;;;;;15.80;3.73;;;6.70;99.90;;;;;;5008521;28;20042;-42
2023/01/30 09:00:14;;;;;;;16.37;3.33;;;6.70;99.90;;;;;;5008394;28;20636;-42
2023/01/30 09:02:41;;;;;;;16.17;3.60;;;6.80;99.90;;;;;;5008751;28;20117;-42
2023/01/30 09:05:07;;;;;;;21.83;3.20;;;6.90;99.90;;;;;;5007859;28;20451;-44
2023/01/30 09:07:33;;;;;;;16.57;3.97;;;6.90;99.90;;;;;;5008578;28;20033;-46
2023/01/30 09:09:59;;;;;;;15.70;3.17;;;7.00;99.90;;;;;;5007760;28;20040;-43
2023/01/30 09:12:25;;;;;;;17.13;3.50;;;7.10;99.90;;;;;;5008986;28;20420;-44
2023/01/30 09:14:56;;;;;;;14.83;3.33;;;7.10;99.90;;;;;;5008053;28;20029;-45
2023/01/30 09:17:23;;;;;;;18.20;3.27;;;7.10;99.90;;;;;;5008713;28;20053;-45
2023/01/30 09:19:49;;;;;;;20.83;5.33;;;7.20;99.90;;;;;;5007945;28;20026;-42
2023/01/30 09:22:16;;;;;;;17.73;3.67;;;7.20;99.90;;;;;;5008535;28;20026;-46
2023/01/30 09:24:41;;;;;;;18.67;4.10;;;7.10;99.90;;;;;;5007312;28;20049;-46
2023/01/30 09:27:07;;;;;;;15.37;3.60;;;7.30;99.90;;;;;;5008531;28;20057;-42
2023/01/30 09:29:33;;;;;;;22.73;3.97;;;7.20;99.90;;;;;;5008680;28;20064;-45
2023/01/30 09:31:59;;;;;;;17.07;3.63;;;7.20;99.90;;;;;;5009302;28;20038;-52
2023/01/30 09:34:27;;;;;;;18.70;3.70;;;7.20;99.90;;;;;;5012222;28;20043;-45
2023/01/30 09:37:00;;;;;;;18.87;3.73;;;7.20;99.90;;;;;;5011702;28;20034;-45
2023/01/30 09:39:26;;;;;;;22.30;4.80;;;7.30;99.90;;;;;;5010976;28;20061;-43
2023/01/30 09:42:04;;;;;;;21.90;4.20;;;7.40;99.90;;;;;;5012205;28;20109;-43
2023/01/30 09:45:02;;;;;;;25.27;4.70;;;7.50;99.90;;;;;;5011996;28;20065;-42
2023/01/30 09:47:45;;;;;;;20.33;4.20;;;7.40;99.90;;;;;;5012085;28;20085;-44
2023/01/30 09:50:22;;;;;;;22.77;4.53;;;7.40;99.90;;;;;;5011441;28;20037;-42
2023/01/30 09:52:59;;;;;;;23.93;3.90;;;7.40;99.90;;;;;;5012052;28;20037;-42
2023/01/30 09:55:28;;;;;;;28.90;4.47;;;7.50;99.90;;;;;;5010542;28;20050;-44
2023/01/30 09:57:56;;;;;;;32.23;4.73;;;7.40;99.90;;;;;;5017371;28;20362;-46
2023/01/30 10:00:28;;;;;;;20.80;4.43;;;7.40;99.90;;;;;;5031112;28;20045;-45
2023/01/30 10:03:13;;;;;;;26.23;5.80;;;7.30;99.90;;;;;;5031554;28;20037;-41
2023/01/30 10:05:50;;;;;;;27.07;6.77;;;7.20;99.90;;;;;;5030798;28;20033;-42
2023/01/30 10:08:22;;;;;;;33.37;6.50;;;7.20;99.90;;;;;;5030409;28;20033;-41
2023/01/30 10:10:56;;;;;;;42.83;11.50;;;7.20;99.90;;;;;;5031644;28;20469;-42
2023/01/30 10:13:50;;;;;;;31.57;7.60;;;7.20;99.90;;;;;;5031205;28;20050;-42
2023/01/30 10:16:34;;;;;;;44.47;9.67;;;7.10;99.90;;;;;;5031055;28;20112;-43
2023/01/30 10:19:08;;;;;;;24.00;5.43;;;7.10;99.90;;;;;;5029347;28;20513;-43
2023/01/30 10:22:01;;;;;;;20.07;3.27;;;7.20;99.90;;;;;;5030746;28;20029;-44
2023/01/30 10:24:54;;;;;;;19.63;4.57;;;7.10;99.90;;;;;;5030131;28;20029;-44
2023/01/30 10:27:21;;;;;;;25.60;5.77;;;7.10;99.90;;;;;;5030692;28;20033;-44
2023/01/30 10:29:55;;;;;;;20.00;4.43;;;7.10;99.90;;;;;;5030507;28;20068;-43
2023/01/30 10:32:43;;;;;;;21.90;4.43;;;7.10;99.90;;;;;;5030668;28;20470;-42
2023/01/30 10:35:30;;;;;;;22.87;4.70;;;7.10;99.90;;;;;;5030021;28;20228;-42
2023/01/30 10:38:20;;;;;;;29.10;5.87;;;7.10;99.90;;;;;;5030521;28;20038;-45
2023/01/30 10:40:59;;;;;;;24.40;4.43;;;7.20;99.90;;;;;;5030786;28;20120;-43
2023/01/30 10:43:38;;;;;;;19.00;3.92;;;7.10;99.90;;;;;;5028735;28;20037;-44
2023/01/30 10:46:29;;;;;;;23.98;4.82;;;7.40;99.90;;;;;;5030252;28;20558;-50
2023/01/30 10:49:00;;;;;;;24.37;5.77;;;7.50;99.90;;;;;;5030509;28;20032;-45
2023/01/30 10:51:32;;;;;;;20.50;4.40;;;7.50;99.90;;;;;;5018224;28;20025;-48
2023/01/30 10:54:02;;;;;;;23.23;4.50;;;7.50;99.90;;;;;;5020425;28;20033;-42
2023/01/30 10:57:09;;;;;;;22.37;4.40;;;7.30;99.90;;;;;;5029602;28;20033;-44
2023/01/30 10:59:42;;;;;;;18.37;3.77;;;7.40;99.90;;;;;;4987941;28;20034;-44
2023/01/30 11:02:25;;;;;;;25.90;4.40;;;7.30;99.90;;;;;;4971881;28;20394;-44
2023/01/30 11:04:58;;;;;;;21.57;4.10;;;7.40;99.90;;;;;;5013766;28;20101;-44
2023/01/30 11:07:24;;;;;;;20.30;3.73;;;7.50;99.90;;;;;;5030264;28;20112;-44
2023/01/30 11:09:50;;;;;;;21.63;4.20;;;7.60;99.90;;;;;;5029811;28;20047;-48
2023/01/30 11:12:16;;;;;;;20.77;3.90;;;7.60;99.90;;;;;;5030693;28;20026;-44
2023/01/30 11:14:58;;;;;;;26.00;4.30;;;7.60;99.90;;;;;;5029658;28;20077;-42
2023/01/30 11:17:37;;;;;;;18.20;4.03;;;7.60;99.90;;;;;;5029648;28;20048;-42
2023/01/30 11:20:09;;;;;;;16.15;3.60;;;7.40;99.90;;;;;;5028230;28;20776;-43
2023/01/30 11:22:36;;;;;;;22.27;4.20;;;7.40;99.90;;;;;;5029980;28;20034;-45
2023/01/30 11:25:13;;;;;;;20.20;3.70;;;7.50;99.90;;;;;;5028697;28;20080;-45
2023/01/30 11:27:43;;;;;;;18.23;3.20;;;7.50;99.90;;;;;;5029699;28;20083;-44
2023/01/30 11:30:17;;;;;;;20.43;4.10;;;7.60;99.90;;;;;;5029760;28;20025;-46
2023/01/30 11:32:45;;;;;;;19.77;3.50;;;7.50;99.90;;;;;;5029885;28;20099;-46
2023/01/30 11:35:27;;;;;;;22.93;4.67;;;7.60;99.90;;;;;;5028647;28;20040;-42
2023/01/30 11:37:53;;;;;;;21.10;4.27;;;7.60;99.90;;;;;;5029547;28;20041;-45
2023/01/30 11:40:26;;;;;;;24.63;3.67;;;7.70;99.90;;;;;;5028500;28;20410;-42
2023/01/30 11:43:00;;;;;;;31.90;5.67;;;7.70;99.90;;;;;;5029807;28;20034;-43
2023/01/30 11:45:28;;;;;;;33.17;5.70;;;7.70;99.90;;;;;;5028700;28;20079;-47
2023/01/30 11:48:02;;;;;;;25.17;3.93;;;7.70;99.90;;;;;;5029055;28;20485;-46
2023/01/30 11:50:41;;;;;;;25.67;3.13;;;7.70;99.90;;;;;;5028658;28;20032;-44
2023/01/30 11:53:33;;;;;;;;;;;7.70;99.90;;;;;;5029690;28;20052;-45
2023/01/30 11:56:04;;;;;;;18.20;2.53;;;7.60;99.90;;;;;;5024377;28;19908;-45
2023/01/30 11:58:35;;;;;;;18.37;2.43;;;7.70;99.90;;;;;;5028343;28;20029;-45
2023/01/30 12:01:02;;;;;;;16.37;2.27;;;7.70;99.90;;;;;;5029070;28;20029;-47
2023/01/30 12:03:28;;;;;;;17.13;2.97;;;7.80;99.90;;;;;;5028208;28;20037;-43
2023/01/30 12:05:56;;;;;;;21.63;3.10;;;7.80;99.90;;;;;;5028541;28;20041;-46
2023/01/30 12:08:36;;;;;;;19.00;3.20;;;7.90;99.90;;;;;;5027640;28;20439;-46
2023/01/30 12:11:06;;;;;;;17.93;2.63;;;7.90;99.90;;;;;;5029217;28;20033;-46
2023/01/30 12:13:40;;;;;;;20.08;2.38;;;8.00;99.90;;;;;;5028515;28;20113;-49
2023/01/30 12:16:20;;;;;;;20.90;3.40;;;8.10;99.90;;;;;;5028324;28;20501;-46
2023/01/30 12:19:04;;;;;;;;;;;8.20;99.90;;;;;;5029443;28;20112;-46
2023/01/30 12:22:00;;;;;;;19.73;3.20;;;8.20;99.90;;;;;;5028257;28;19963;-46
2023/01/30 12:24:50;;;;;;;19.73;2.70;;;8.20;99.90;;;;;;5027916;28;20037;-43
2023/01/30 12:27:34;;;;;;;18.70;2.83;;;8.30;99.90;;;;;;5028468;28;20115;-46
2023/01/30 12:30:19;;;;;;;14.03;2.20;;;8.20;99.90;;;;;;5028831;28;20045;-45
2023/01/30 12:32:45;;;;;;;20.33;3.67;;;8.10;99.90;;;;;;5028781;28;20039;-45
2023/01/30 12:35:16;;;;;;;19.43;2.80;;;8.10;99.90;;;;;;5027833;28;20038;-45
2023/01/30 12:38:24;;;;;;;15.07;2.60;;;8.10;99.90;;;;;;5028860;28;20546;-44
2023/01/30 12:40:53;;;;;;;11.53;2.20;;;8.10;99.90;;;;;;5008349;28;20155;-44
2023/01/30 12:43:40;;;;;;;19.15;3.10;;;8.10;99.90;;;;;;5028331;28;20381;-46
2023/01/30 12:46:35;;;;;;;15.93;2.70;;;8.20;99.90;;;;;;5028733;28;20037;-42
2023/01/30 12:49:27;;;;;;;17.53;2.57;;;8.60;99.90;;;;;;5026993;28;20087;-45
2023/01/30 12:52:30;;;;;;;19.30;3.10;;;8.80;99.90;;;;;;5028197;28;20029;-43
2023/01/30 12:55:07;;;;;;;26.13;3.23;;;9.00;99.90;;;;;;5030795;28;20033;-47
2023/01/30 12:57:58;;;;;;;20.73;3.27;;;8.90;99.90;;;;;;5047456;28;20124;-46
2023/01/30 13:00:37;;;;;;;18.33;3.30;;;8.70;99.90;;;;;;5047901;28;20041;-45
2023/01/30 13:03:25;;;;;;;19.10;3.30;;;8.70;99.90;;;;;;5048471;28;20055;-44
2023/01/30 13:06:06;;;;;;;21.77;3.93;;;8.50;99.90;;;;;;5047514;28;20404;-43
2023/01/30 13:08:50;;;;;;;19.30;3.40;;;8.30;99.90;;;;;;5049930;28;20039;-46